createdAt,value
2022-12-03T00:00:57.662Z,22
2022-12-03T00:02:05.579Z,23
2022-12-03T00:03:08.176Z,20
2022-12-03T00:04:11.515Z,20
2022-12-03T00:05:14.076Z,18
2022-12-03T00:06:21.251Z,19
2022-12-03T00:07:23.618Z,18
2022-12-03T00:08:28.046Z,15
2022-12-03T00:09:34.958Z,17
2022-12-03T00:10:42.807Z,15
2022-12-03T00:11:50.622Z,18
2022-12-03T00:12:57.315Z,19
2022-12-03T00:14:05.072Z,18
2022-12-03T00:15:08.824Z,18
2022-12-03T00:16:15.764Z,18
2022-12-03T00:17:23.715Z,18
2022-12-03T00:18:27.417Z,19
2022-12-03T00:19:30.327Z,18
2022-12-03T00:20:34.364Z,18
2022-12-03T00:21:38.462Z,18
2022-12-03T00:22:41.348Z,18
2022-12-03T00:23:49.408Z,20
2022-12-03T00:24:57.139Z,18
2022-12-03T00:26:03.894Z,18
2022-12-03T00:27:11.652Z,18
2022-12-03T00:28:19.441Z,18
2022-12-03T00:29:22.214Z,19
2022-12-03T00:30:30.151Z,20
2022-12-03T00:31:33.969Z,19
2022-12-03T00:32:41.236Z,18
2022-12-03T00:33:43.538Z,20
2022-12-03T00:34:52.030Z,20
2022-12-03T00:35:55.707Z,20
2022-12-03T00:37:07.688Z,18
2022-12-03T00:38:10.404Z,18
2022-12-03T00:39:12.982Z,20
2022-12-03T00:40:17.273Z,21
2022-12-03T00:41:19.653Z,22
2022-12-03T00:42:22.267Z,20
2022-12-03T00:43:26.594Z,20
2022-12-03T00:44:35.523Z,20
2022-12-03T00:45:38.308Z,20
2022-12-03T00:46:42.496Z,20
2022-12-03T00:47:50.726Z,20
2022-12-03T00:48:53.484Z,20
2022-12-03T00:50:01.434Z,20
2022-12-03T00:51:03.689Z,20
2022-12-03T00:52:10.806Z,18
2022-12-03T00:53:18.570Z,18
2022-12-03T00:54:31.514Z,20
2022-12-03T00:55:34.992Z,20
2022-12-03T00:56:42.909Z,21
2022-12-03T00:57:46.703Z,22
2022-12-03T00:58:49.086Z,21
2022-12-03T00:59:51.694Z,22
2022-12-03T01:00:59.839Z,20
2022-12-03T01:02:02.251Z,20
2022-12-03T01:03:10.747Z,22
2022-12-03T01:04:13.015Z,22
2022-12-03T01:05:15.845Z,22
2022-12-03T01:06:24.280Z,21
2022-12-03T01:07:28.110Z,21
2022-12-03T01:08:35.241Z,22
2022-12-03T01:09:37.508Z,20
2022-12-03T01:10:45.602Z,21
2022-12-03T01:11:48.371Z,20
2022-12-03T01:12:50.832Z,20
2022-12-03T01:13:54.975Z,21
2022-12-03T01:14:57.398Z,22
2022-12-03T01:16:00.047Z,20
2022-12-03T01:17:08.466Z,20
2022-12-03T01:18:10.694Z,20
2022-12-03T01:19:14.782Z,20
2022-12-03T01:20:17.195Z,20
2022-12-03T01:21:21.333Z,19
2022-12-03T01:22:23.773Z,20
2022-12-03T01:23:31.896Z,20
2022-12-03T01:24:38.701Z,19
2022-12-03T01:25:40.964Z,20
2022-12-03T01:26:43.540Z,20
2022-12-03T01:27:46.703Z,18
2022-12-03T01:28:50.724Z,20
2022-12-03T01:29:53.138Z,20
2022-12-03T01:30:56.363Z,20
2022-12-03T01:32:00.617Z,20
2022-12-03T01:33:08.606Z,20
2022-12-03T01:34:10.865Z,20
2022-12-03T01:35:18.962Z,20
2022-12-03T01:36:22.740Z,20
2022-12-03T01:37:26.704Z,20
2022-12-03T01:38:37.221Z,18
2022-12-03T01:39:45.145Z,18
2022-12-03T01:40:51.918Z,18
2022-12-03T01:41:54.224Z,20
2022-12-03T01:43:02.337Z,19
2022-12-03T01:44:05.196Z,19
2022-12-03T01:45:09.190Z,20
2022-12-03T01:46:17.128Z,20
2022-12-03T01:47:20.116Z,20
2022-12-03T01:48:22.651Z,19
2022-12-03T01:49:26.836Z,20
2022-12-03T01:50:29.298Z,20
2022-12-03T01:51:33.401Z,20
2022-12-03T01:52:35.915Z,20
2022-12-03T01:53:47.053Z,20
2022-12-03T01:54:55.056Z,20
2022-12-03T01:55:58.633Z,20
2022-12-03T01:57:01.739Z,20
2022-12-03T01:58:09.721Z,21
2022-12-03T01:59:13.620Z,21
2022-12-03T02:00:16.013Z,20
2022-12-03T02:01:20.391Z,21
2022-12-03T02:02:28.615Z,20
2022-12-03T02:03:31.654Z,20
2022-12-03T02:04:39.883Z,20
2022-12-03T02:05:42.071Z,20
2022-12-03T02:06:49.412Z,23
2022-12-03T02:07:57.325Z,23
2022-12-03T02:09:00.169Z,22
2022-12-03T02:10:07.546Z,23
2022-12-03T02:11:09.958Z,22
2022-12-03T02:12:13.961Z,21
2022-12-03T02:13:20.905Z,20
2022-12-03T02:14:28.723Z,20
2022-12-03T02:15:30.954Z,21
2022-12-03T02:16:34.114Z,22
2022-12-03T02:17:42.506Z,21
2022-12-03T02:18:44.777Z,22
2022-12-03T02:19:47.905Z,20
2022-12-03T02:20:50.383Z,20
2022-12-03T02:21:54.518Z,20
2022-12-03T02:22:56.948Z,20
2022-12-03T02:23:59.588Z,20
2022-12-03T02:25:02.195Z,21
2022-12-03T02:26:10.376Z,20
2022-12-03T02:27:12.595Z,20
2022-12-03T02:28:16.713Z,20
2022-12-03T02:29:19.129Z,20
2022-12-03T02:30:22.314Z,20
2022-12-03T02:31:30.518Z,20
2022-12-03T02:32:37.731Z,20
2022-12-03T02:33:39.930Z,20
2022-12-03T02:34:42.510Z,19
2022-12-03T02:35:45.124Z,20
2022-12-03T02:37:02.242Z,20
2022-12-03T02:38:04.978Z,21
2022-12-03T02:39:08.332Z,20
2022-12-03T02:40:16.521Z,20
2022-12-03T02:41:18.758Z,21
2022-12-03T02:42:26.123Z,22
2022-12-03T02:43:28.444Z,21
2022-12-03T02:44:32.559Z,20
2022-12-03T02:45:39.501Z,22
2022-12-03T02:46:47.433Z,21
2022-12-03T02:47:50.009Z,22
2022-12-03T02:48:52.606Z,20
2022-12-03T02:50:00.714Z,22
2022-12-03T02:51:02.949Z,21
2022-12-03T02:52:10.019Z,20
2022-12-03T02:53:12.365Z,20
2022-12-03T02:54:14.931Z,21
2022-12-03T02:55:17.559Z,22
2022-12-03T02:56:20.166Z,21
2022-12-03T02:57:36.304Z,23
2022-12-03T02:58:43.692Z,21
2022-12-03T02:59:47.333Z,20
2022-12-03T03:00:55.362Z,20
2022-12-03T03:02:02.592Z,21
2022-12-03T03:03:10.743Z,20
2022-12-03T03:04:12.950Z,18
2022-12-03T03:05:20.257Z,19
2022-12-03T03:06:22.504Z,21
2022-12-03T03:07:25.248Z,22
2022-12-03T03:08:28.528Z,21
2022-12-03T03:09:31.159Z,20
2022-12-03T03:10:35.440Z,20
2022-12-03T03:11:42.529Z,20
2022-12-03T03:12:44.833Z,20
2022-12-03T03:13:49.014Z,20
2022-12-03T03:14:53.102Z,20
2022-12-03T03:15:58.492Z,20
2022-12-03T03:17:02.615Z,20
2022-12-03T03:18:09.593Z,20
2022-12-03T03:19:12.160Z,19
2022-12-03T03:20:16.108Z,17
2022-12-03T03:21:23.085Z,15
2022-12-03T03:22:30.919Z,18
2022-12-03T03:23:33.138Z,18
2022-12-03T03:24:40.273Z,20
2022-12-03T03:25:42.593Z,18
2022-12-03T03:26:45.239Z,18
2022-12-03T03:27:47.878Z,20
2022-12-03T03:28:54.600Z,20
2022-12-03T03:29:56.940Z,18
2022-12-03T03:31:04.055Z,18
2022-12-03T03:32:07.915Z,18
2022-12-03T03:33:10.602Z,19
2022-12-03T03:34:13.199Z,20
2022-12-03T03:35:21.317Z,19
2022-12-03T03:36:23.594Z,20
2022-12-03T03:37:26.221Z,20
2022-12-03T03:38:28.867Z,20
2022-12-03T03:39:31.455Z,20
2022-12-03T03:40:38.727Z,21
2022-12-03T03:41:46.527Z,20
2022-12-03T03:42:48.793Z,20
2022-12-03T03:43:51.921Z,20
2022-12-03T03:44:54.676Z,21
2022-12-03T03:46:03.898Z,20
2022-12-03T03:47:06.992Z,20
2022-12-03T03:48:15.021Z,22
2022-12-03T03:49:18.821Z,20
2022-12-03T03:50:21.345Z,20
2022-12-03T03:51:23.920Z,18
2022-12-03T03:52:26.781Z,20
2022-12-03T03:53:30.914Z,19
2022-12-03T03:54:33.515Z,18
2022-12-03T03:55:36.099Z,20
2022-12-03T03:56:40.265Z,19
2022-12-03T03:57:42.664Z,18
2022-12-03T03:58:46.817Z,18
2022-12-03T03:59:49.234Z,18
2022-12-03T04:00:57.490Z,18
2022-12-03T04:02:01.547Z,15
2022-12-03T04:03:08.453Z,18
2022-12-03T04:04:10.864Z,18
2022-12-03T04:05:13.570Z,19
2022-12-03T04:06:16.901Z,20
2022-12-03T04:07:19.378Z,18
2022-12-03T04:08:22.040Z,18
2022-12-03T04:09:24.514Z,19
2022-12-03T04:10:32.672Z,18
2022-12-03T04:11:34.835Z,18
2022-12-03T04:12:37.439Z,18
2022-12-03T04:13:41.709Z,15
2022-12-03T04:14:49.604Z,17
2022-12-03T04:15:52.353Z,15
2022-12-03T04:16:56.436Z,14
2022-12-03T04:18:04.677Z,18
2022-12-03T04:19:07.478Z,19
2022-12-03T04:20:09.900Z,18
2022-12-03T04:21:12.716Z,20
2022-12-03T04:22:24.103Z,19
2022-12-03T04:23:30.680Z,19
2022-12-03T04:24:33.420Z,18
2022-12-03T04:25:36.002Z,19
2022-12-03T04:26:44.146Z,20
2022-12-03T04:27:47.964Z,20
2022-12-03T04:28:54.943Z,20
2022-12-03T04:29:57.188Z,20
2022-12-03T04:31:01.342Z,18
2022-12-03T04:32:04.144Z,18
2022-12-03T04:33:08.293Z,20
2022-12-03T04:34:16.242Z,20
2022-12-03T04:35:18.625Z,18
2022-12-03T04:36:26.912Z,18
2022-12-03T04:37:30.616Z,18
2022-12-03T04:38:37.530Z,18
2022-12-03T04:39:45.295Z,20
2022-12-03T04:40:53.078Z,15
2022-12-03T04:41:55.804Z,20
2022-12-03T04:43:03.822Z,18
2022-12-03T04:44:07.621Z,17
2022-12-03T04:45:14.550Z,18
2022-12-03T04:46:16.887Z,20
2022-12-03T04:47:25.330Z,18
2022-12-03T04:48:32.114Z,19
2022-12-03T04:49:40.151Z,18
2022-12-03T04:50:47.900Z,20
2022-12-03T04:51:54.975Z,18
2022-12-03T04:52:57.200Z,15
2022-12-03T04:54:05.281Z,14
2022-12-03T04:55:08.092Z,14
2022-12-03T04:56:10.522Z,18
2022-12-03T04:57:13.120Z,19
2022-12-03T04:58:15.743Z,18
2022-12-03T04:59:24.921Z,18
2022-12-03T05:00:28.676Z,18
2022-12-03T05:01:31.100Z,20
2022-12-03T05:02:39.613Z,19
2022-12-03T05:03:42.109Z,19
2022-12-03T05:04:49.205Z,20
2022-12-03T05:05:57.020Z,20
2022-12-03T05:07:04.786Z,20
2022-12-03T05:08:11.613Z,19
2022-12-03T05:09:19.746Z,19
2022-12-03T05:10:27.479Z,20
2022-12-03T05:11:34.405Z,20
2022-12-03T05:12:36.666Z,20
2022-12-03T05:13:44.736Z,20
2022-12-03T05:14:47.523Z,20
2022-12-03T05:15:50.102Z,21
2022-12-03T05:16:58.347Z,20
2022-12-03T05:18:00.952Z,21
2022-12-03T05:19:09.036Z,21
2022-12-03T05:20:11.364Z,20
2022-12-03T05:21:13.919Z,22
2022-12-03T05:22:16.503Z,21
2022-12-03T05:23:20.668Z,20
2022-12-03T05:24:23.102Z,20
2022-12-03T05:25:32.256Z,20
2022-12-03T05:26:35.979Z,21
2022-12-03T05:27:38.870Z,20
2022-12-03T05:28:46.931Z,20
2022-12-03T05:29:49.428Z,20
2022-12-03T05:30:52.813Z,20
2022-12-03T05:31:55.651Z,20
2022-12-03T05:32:58.274Z,18
2022-12-03T05:34:01.446Z,20
2022-12-03T05:35:09.474Z,18
2022-12-03T05:36:17.147Z,19
2022-12-03T05:37:19.414Z,18
2022-12-03T05:38:27.547Z,18
2022-12-03T05:39:29.785Z,20
2022-12-03T05:40:32.371Z,18
2022-12-03T05:41:36.540Z,19
2022-12-03T05:42:38.962Z,18
2022-12-03T05:43:46.131Z,18
2022-12-03T05:44:49.956Z,15
2022-12-03T05:45:52.450Z,15
2022-12-03T05:46:55.183Z,17
2022-12-03T05:47:59.214Z,17
2022-12-03T05:49:01.619Z,15
2022-12-03T05:50:08.779Z,14
2022-12-03T05:51:11.099Z,15
2022-12-03T05:52:19.221Z,18
2022-12-03T05:53:21.435Z,20
2022-12-03T05:54:29.563Z,18
2022-12-03T05:55:33.312Z,20
2022-12-03T05:56:36.273Z,19
2022-12-03T05:57:40.624Z,20
2022-12-03T05:58:43.019Z,22
2022-12-03T05:59:50.137Z,21
2022-12-03T06:00:57.982Z,22
2022-12-03T06:02:01.843Z,20
2022-12-03T06:03:05.091Z,20
2022-12-03T06:04:09.749Z,18
2022-12-03T06:05:17.822Z,20
2022-12-03T06:06:20.045Z,20
2022-12-03T06:07:28.109Z,20
2022-12-03T06:08:36.045Z,19
2022-12-03T06:09:38.231Z,18
2022-12-03T06:10:42.712Z,19
2022-12-03T06:11:58.602Z,20
2022-12-03T06:13:01.301Z,20
2022-12-03T06:14:03.880Z,19
2022-12-03T06:15:12.003Z,20
2022-12-03T06:16:14.440Z,21
2022-12-03T06:17:23.074Z,20
2022-12-03T06:18:30.789Z,20
2022-12-03T06:19:33.048Z,20
2022-12-03T06:20:41.134Z,20
2022-12-03T06:21:44.953Z,20
2022-12-03T06:22:47.888Z,20
2022-12-03T06:23:55.884Z,21
2022-12-03T06:25:03.481Z,21
2022-12-03T06:26:09.420Z,22
2022-12-03T06:27:12.001Z,22
2022-12-03T06:28:16.309Z,20
2022-12-03T06:29:18.732Z,20
2022-12-03T06:30:22.744Z,22
2022-12-03T06:31:25.285Z,23
2022-12-03T06:32:28.405Z,23
2022-12-03T06:33:32.538Z,23
2022-12-03T06:34:34.987Z,25
2022-12-03T06:35:37.541Z,25
2022-12-03T06:36:40.425Z,23
2022-12-03T06:37:43.265Z,25
2022-12-03T06:38:45.822Z,25
2022-12-03T06:39:49.968Z,26
2022-12-03T06:40:52.336Z,30
2022-12-03T06:42:01.814Z,30
2022-12-03T06:43:09.577Z,30
2022-12-03T06:44:13.323Z,27
2022-12-03T06:45:15.753Z,24
2022-12-03T06:46:20.163Z,23
2022-12-03T06:47:22.886Z,21
2022-12-03T06:48:26.222Z,21
2022-12-03T06:49:28.642Z,22
2022-12-03T06:50:32.742Z,23
2022-12-03T06:51:35.166Z,26
2022-12-03T06:52:39.384Z,23
2022-12-03T06:53:41.842Z,22
2022-12-03T06:54:45.110Z,20
2022-12-03T06:55:49.951Z,20
2022-12-03T06:56:52.539Z,19
2022-12-03T06:57:55.702Z,20
2022-12-03T06:58:58.235Z,20
2022-12-03T07:00:08.887Z,20
2022-12-03T07:01:11.721Z,20
2022-12-03T07:02:14.389Z,19
2022-12-03T07:03:17.122Z,18
2022-12-03T07:04:20.055Z,23
2022-12-03T07:05:30.163Z,30
2022-12-03T07:06:37.989Z,27
2022-12-03T07:07:44.963Z,23
2022-12-03T07:08:47.504Z,22
2022-12-03T07:09:51.823Z,21
2022-12-03T07:10:54.740Z,22
2022-12-03T07:11:57.196Z,22
2022-12-03T07:13:01.327Z,20
2022-12-03T07:14:05.677Z,20
2022-12-03T07:15:08.374Z,22
2022-12-03T07:16:10.923Z,22
2022-12-03T07:17:13.811Z,21
2022-12-03T07:18:16.430Z,22
2022-12-03T07:19:30.806Z,21
2022-12-03T07:20:36.907Z,21
2022-12-03T07:21:39.514Z,20
2022-12-03T07:22:42.172Z,22
2022-12-03T07:23:44.873Z,21
2022-12-03T07:24:47.563Z,22
2022-12-03T07:25:50.171Z,21
2022-12-03T07:26:53.321Z,22
2022-12-03T07:27:55.804Z,22
2022-12-03T07:29:01.950Z,22
2022-12-03T07:30:04.379Z,23
2022-12-03T07:31:08.548Z,21
2022-12-03T07:32:11.816Z,23
2022-12-03T07:33:14.379Z,23
2022-12-03T07:34:22.524Z,24
2022-12-03T07:35:24.842Z,23
2022-12-03T07:36:27.446Z,23
2022-12-03T07:37:30.057Z,23
2022-12-03T07:38:38.199Z,23
2022-12-03T07:39:40.531Z,22
2022-12-03T07:40:44.612Z,23
2022-12-03T07:41:48.661Z,23
2022-12-03T07:42:51.587Z,23
2022-12-03T07:43:55.559Z,23
2022-12-03T07:44:59.444Z,22
2022-12-03T07:46:03.364Z,22
2022-12-03T07:47:11.396Z,23
2022-12-03T07:48:13.934Z,23
2022-12-03T07:49:20.937Z,22
2022-12-03T07:50:24.708Z,22
2022-12-03T07:51:32.687Z,22
2022-12-03T07:52:39.582Z,22
2022-12-03T07:53:41.756Z,22
2022-12-03T07:54:44.412Z,22
2022-12-03T07:55:47.043Z,22
2022-12-03T07:57:03.654Z,22
2022-12-03T07:58:06.581Z,20
2022-12-03T07:59:09.182Z,22
2022-12-03T08:00:11.732Z,20
2022-12-03T08:01:14.377Z,22
2022-12-03T08:02:21.104Z,23
2022-12-03T08:03:24.569Z,22
2022-12-03T08:04:27.154Z,23
2022-12-03T08:05:29.953Z,23
2022-12-03T08:06:32.586Z,23
2022-12-03T08:07:35.445Z,22
2022-12-03T08:08:38.435Z,23
2022-12-03T08:09:46.568Z,23
2022-12-03T08:10:50.395Z,23
2022-12-03T08:11:57.331Z,23
2022-12-03T08:12:59.697Z,23
2022-12-03T08:14:02.217Z,23
2022-12-03T08:15:04.710Z,23
2022-12-03T08:16:08.876Z,24
2022-12-03T08:17:11.663Z,23
2022-12-03T08:18:15.826Z,23
2022-12-03T08:19:23.742Z,23
2022-12-03T08:20:26.041Z,23
2022-12-03T08:21:28.574Z,22
2022-12-03T08:22:31.140Z,25
2022-12-03T08:23:39.132Z,28
2022-12-03T08:24:45.962Z,26
2022-12-03T08:25:53.752Z,25
2022-12-03T08:26:57.524Z,25
2022-12-03T08:27:59.930Z,24
2022-12-03T08:29:08.047Z,23
2022-12-03T08:30:10.337Z,23
2022-12-03T08:31:13.518Z,24
2022-12-03T08:32:21.890Z,28
2022-12-03T08:33:24.480Z,24
2022-12-03T08:34:27.760Z,23
2022-12-03T08:35:35.811Z,23
2022-12-03T08:36:39.651Z,23
2022-12-03T08:38:02.293Z,23
2022-12-03T08:39:05.773Z,23
2022-12-03T08:40:08.167Z,23
2022-12-03T08:41:10.658Z,22
2022-12-03T08:42:14.809Z,22
2022-12-03T08:43:17.295Z,23
2022-12-03T08:44:20.557Z,23
2022-12-03T08:45:23.154Z,23
2022-12-03T08:46:31.284Z,23
2022-12-03T08:47:38.109Z,23
2022-12-03T08:48:48.882Z,23
2022-12-03T08:49:57.517Z,23
2022-12-03T08:50:59.827Z,23
2022-12-03T08:52:02.327Z,23
2022-12-03T08:53:13.435Z,22
2022-12-03T08:54:20.876Z,22
2022-12-03T08:55:28.885Z,22
2022-12-03T08:56:31.193Z,21
2022-12-03T08:57:38.395Z,22
2022-12-03T08:58:46.177Z,22
2022-12-03T08:59:48.394Z,22
2022-12-03T09:00:51.292Z,23
2022-12-03T09:01:55.633Z,22
2022-12-03T09:02:58.022Z,23
2022-12-03T09:04:05.123Z,23
2022-12-03T09:05:09.077Z,23
2022-12-03T09:06:21.084Z,22
2022-12-03T09:07:23.750Z,22
2022-12-03T09:08:27.646Z,22
2022-12-03T09:09:35.535Z,22
2022-12-03T09:10:37.742Z,23
2022-12-03T09:11:45.718Z,23
2022-12-03T09:12:48.201Z,22
2022-12-03T09:13:51.266Z,22
2022-12-03T09:14:54.016Z,22
2022-12-03T09:15:57.754Z,20
2022-12-03T09:17:00.905Z,21
2022-12-03T09:18:05.149Z,22
2022-12-03T09:19:13.148Z,23
2022-12-03T09:20:18.444Z,23
2022-12-03T09:22:30.424Z,23
2022-12-03T09:23:37.647Z,23
2022-12-03T09:24:45.340Z,25
2022-12-03T09:25:51.560Z,24
2022-12-03T09:27:02.517Z,27
2022-12-03T09:28:07.465Z,27
2022-12-03T09:29:12.265Z,24
2022-12-03T09:30:15.958Z,23
2022-12-03T09:31:22.918Z,25
2022-12-03T09:32:30.942Z,23
2022-12-03T09:33:38.103Z,24
2022-12-03T09:34:54.163Z,23
2022-12-03T09:35:59.527Z,23
2022-12-03T09:37:06.714Z,24
2022-12-03T09:38:14.924Z,27
2022-12-03T09:39:23.878Z,27
2022-12-03T09:40:29.713Z,28
2022-12-03T09:41:36.566Z,30
2022-12-03T09:42:38.800Z,28
2022-12-03T09:45:12.894Z,24
2022-12-03T09:46:19.313Z,25
2022-12-03T09:47:23.500Z,26
2022-12-03T09:48:31.493Z,30
2022-12-03T09:49:35.280Z,28
2022-12-03T09:50:48.126Z,26
2022-12-03T09:51:55.930Z,25
2022-12-03T09:53:06.975Z,24
2022-12-03T09:54:14.961Z,23
2022-12-03T09:55:18.645Z,23
2022-12-03T09:56:31.060Z,24
2022-12-03T09:57:34.779Z,25
2022-12-03T09:58:42.723Z,25
2022-12-03T09:59:45.052Z,25
2022-12-03T10:00:47.728Z,23
2022-12-03T10:01:50.492Z,23
2022-12-03T10:02:53.788Z,26
2022-12-03T10:03:56.415Z,28
2022-12-03T10:05:05.418Z,24
2022-12-03T10:06:07.954Z,23
2022-12-03T10:07:16.164Z,23
2022-12-03T10:08:20.121Z,25
2022-12-03T10:09:22.902Z,25
2022-12-03T10:10:31.051Z,24
2022-12-03T10:11:33.287Z,26
2022-12-03T10:12:35.910Z,27
2022-12-03T10:13:39.150Z,29
2022-12-03T10:14:47.216Z,25
2022-12-03T10:15:54.064Z,26
2022-12-03T10:17:02.700Z,26
2022-12-03T10:19:44.355Z,23
2022-12-03T10:20:52.268Z,25
2022-12-03T10:21:59.996Z,24
2022-12-03T10:23:06.801Z,27
2022-12-03T10:24:38.543Z,26
2022-12-03T10:25:41.861Z,30
2022-12-03T10:26:51.780Z,28
2022-12-03T10:27:59.605Z,27
2022-12-03T10:29:01.833Z,26
2022-12-03T10:30:09.804Z,26
2022-12-03T10:31:13.772Z,25
2022-12-03T10:32:16.668Z,26
2022-12-03T10:33:24.576Z,26
2022-12-03T10:34:26.851Z,27
2022-12-03T10:35:29.472Z,25
2022-12-03T10:36:33.559Z,25
2022-12-03T10:37:36.256Z,26
2022-12-03T10:38:42.337Z,24
2022-12-03T10:39:44.700Z,25
2022-12-03T10:40:47.433Z,31
2022-12-03T10:41:50.016Z,31
2022-12-03T10:42:52.704Z,29
2022-12-03T10:43:55.314Z,29
2022-12-03T10:44:57.908Z,27
2022-12-03T10:46:04.009Z,28
2022-12-03T10:47:07.622Z,27
2022-12-03T10:48:11.066Z,28
2022-12-03T10:49:13.633Z,27
2022-12-03T10:50:33.736Z,28
2022-12-03T10:51:38.572Z,28
2022-12-03T10:52:41.108Z,27
2022-12-03T10:53:49.207Z,25
2022-12-03T10:54:51.956Z,26
2022-12-03T10:55:55.757Z,27
2022-12-03T10:56:58.318Z,26
2022-12-03T10:58:00.959Z,27
2022-12-03T10:59:05.057Z,27
2022-12-03T11:00:07.502Z,26
2022-12-03T11:01:10.120Z,24
2022-12-03T11:02:12.913Z,25
2022-12-03T11:03:18.089Z,26
2022-12-03T11:04:20.970Z,26
2022-12-03T11:05:38.151Z,24
2022-12-03T11:06:41.752Z,25
2022-12-03T11:07:48.716Z,29
2022-12-03T11:08:56.480Z,28
2022-12-03T11:10:20.364Z,27
2022-12-03T11:11:31.822Z,28
2022-12-03T11:12:39.374Z,30
2022-12-03T11:13:51.645Z,30
2022-12-03T11:14:54.090Z,28
2022-12-03T11:15:58.047Z,26
2022-12-03T11:17:01.277Z,26
2022-12-03T11:18:03.949Z,27
2022-12-03T11:19:06.556Z,28
2022-12-03T11:20:09.687Z,28
2022-12-03T11:21:12.146Z,30
2022-12-03T11:22:20.274Z,30
2022-12-03T11:23:23.109Z,27
2022-12-03T11:24:26.169Z,28
2022-12-03T11:25:39.405Z,26
2022-12-03T11:27:00.316Z,26
2022-12-03T11:28:02.240Z,27
2022-12-03T11:29:05.413Z,26
2022-12-03T11:30:12.462Z,27
2022-12-03T11:31:20.297Z,26
2022-12-03T11:32:26.909Z,27
2022-12-03T11:33:34.333Z,28
2022-12-03T11:34:36.734Z,27
2022-12-03T11:35:39.354Z,28
2022-12-03T11:37:00.991Z,28
2022-12-03T11:38:05.637Z,28
2022-12-03T11:39:07.955Z,29
2022-12-03T11:40:11.092Z,29
2022-12-03T11:41:13.557Z,29
2022-12-03T11:42:26.121Z,28
2022-12-03T11:43:28.969Z,30
2022-12-03T11:44:31.457Z,30
2022-12-03T11:45:34.126Z,30
2022-12-03T11:46:41.770Z,31
2022-12-03T11:47:49.837Z,30
2022-12-03T11:48:53.558Z,28
2022-12-03T11:50:00.426Z,29
2022-12-03T11:51:02.648Z,30
2022-12-03T11:52:06.937Z,28
2022-12-03T11:53:23.797Z,30
2022-12-03T11:54:28.540Z,29
2022-12-03T11:55:32.617Z,29
2022-12-03T11:56:35.022Z,29
2022-12-03T11:57:39.176Z,26
2022-12-03T11:58:44.443Z,31
2022-12-03T11:59:47.900Z,30
2022-12-03T12:00:56.013Z,29
2022-12-03T12:01:58.211Z,30
2022-12-03T12:03:01.132Z,27
2022-12-03T12:04:04.052Z,29
2022-12-03T12:05:08.375Z,29
2022-12-03T12:06:11.427Z,28
2022-12-03T12:07:13.853Z,28
2022-12-03T12:08:26.319Z,27
2022-12-03T12:09:28.341Z,27
2022-12-03T12:10:32.467Z,26
2022-12-03T12:11:34.992Z,27
2022-12-03T12:12:38.782Z,28
2022-12-03T12:13:42.862Z,28
2022-12-03T12:14:50.804Z,30
2022-12-03T12:15:53.071Z,30
2022-12-03T12:17:01.405Z,29
2022-12-03T12:18:05.171Z,27
2022-12-03T12:19:12.170Z,29
2022-12-03T12:20:14.482Z,29
2022-12-03T12:21:22.726Z,30
2022-12-03T12:22:25.126Z,29
2022-12-03T12:23:27.802Z,29
2022-12-03T12:24:35.887Z,30
2022-12-03T12:25:38.695Z,29
2022-12-03T12:26:41.143Z,29
2022-12-03T12:27:43.779Z,29
2022-12-03T12:28:50.926Z,29
2022-12-03T12:29:58.758Z,29
2022-12-03T12:31:02.679Z,30
2022-12-03T12:32:05.966Z,28
2022-12-03T12:33:09.905Z,30
2022-12-03T12:34:22.506Z,30
2022-12-03T12:35:24.987Z,30
2022-12-03T12:36:27.557Z,33
2022-12-03T12:37:32.427Z,30
2022-12-03T12:38:39.893Z,30
2022-12-03T12:39:47.671Z,29
2022-12-03T12:40:49.943Z,29
2022-12-03T12:41:53.084Z,30
2022-12-03T12:43:04.265Z,30
2022-12-03T12:44:22.273Z,30
2022-12-03T12:45:24.822Z,30
2022-12-03T12:46:49.783Z,31
2022-12-03T12:47:51.859Z,31
2022-12-03T12:49:07.282Z,30
2022-12-03T12:50:17.980Z,29
2022-12-03T12:51:20.217Z,29
2022-12-03T12:52:27.348Z,29
2022-12-03T12:53:29.622Z,28
2022-12-03T12:54:38.234Z,31
2022-12-03T12:55:44.919Z,30
2022-12-03T12:56:57.227Z,29
2022-12-03T12:58:00.948Z,29
2022-12-03T12:59:03.335Z,29
2022-12-03T13:00:07.309Z,30
2022-12-03T13:01:11.518Z,30
2022-12-03T13:02:14.607Z,29
2022-12-03T13:03:17.484Z,29
2022-12-03T13:04:20.080Z,30
2022-12-03T13:05:22.752Z,30
2022-12-03T13:06:25.378Z,29
2022-12-03T13:07:29.541Z,30
2022-12-03T13:08:32.125Z,30
2022-12-03T13:09:34.748Z,30
2022-12-03T13:10:38.858Z,28
2022-12-03T13:11:45.955Z,30
2022-12-03T13:12:53.777Z,30
2022-12-03T13:13:55.987Z,30
2022-12-03T13:15:02.323Z,30
2022-12-03T13:16:06.256Z,29
2022-12-03T13:17:09.302Z,29
2022-12-03T13:18:15.191Z,30
2022-12-03T13:19:23.022Z,30
2022-12-03T13:20:25.378Z,30
2022-12-03T13:21:47.507Z,31
2022-12-03T13:22:59.796Z,30
2022-12-03T13:24:02.035Z,30
2022-12-03T13:25:04.556Z,30
2022-12-03T13:26:23.756Z,30
2022-12-03T13:27:29.039Z,29
2022-12-03T13:28:31.592Z,30
2022-12-03T13:29:34.196Z,30
2022-12-03T13:30:36.788Z,30
2022-12-03T13:31:44.640Z,28
2022-12-03T13:32:47.306Z,30
2022-12-03T13:33:49.913Z,30
2022-12-03T13:34:57.042Z,30
2022-12-03T13:35:59.504Z,30
2022-12-03T13:37:02.172Z,31
2022-12-03T13:38:04.806Z,30
2022-12-03T13:39:07.522Z,29
2022-12-03T13:40:10.174Z,30
2022-12-03T13:41:17.638Z,30
2022-12-03T13:42:19.901Z,30
2022-12-03T13:43:23.063Z,30
2022-12-03T13:44:27.127Z,30
2022-12-03T13:45:29.648Z,30
2022-12-03T13:46:38.047Z,31
2022-12-03T13:47:40.818Z,30
2022-12-03T13:48:43.301Z,30
2022-12-03T13:49:45.958Z,30
2022-12-03T13:50:49.985Z,30
2022-12-03T13:51:58.023Z,30
2022-12-03T13:53:00.288Z,30
2022-12-03T13:54:02.941Z,29
2022-12-03T13:55:07.079Z,30
2022-12-03T13:56:14.941Z,30
2022-12-03T13:57:17.787Z,30
2022-12-03T13:58:21.793Z,29
2022-12-03T13:59:26.244Z,30
2022-12-03T14:00:29.655Z,30
2022-12-03T14:01:32.207Z,31
2022-12-03T14:02:35.181Z,31
2022-12-03T14:03:38.191Z,30
2022-12-03T14:04:46.378Z,30
2022-12-03T14:05:50.217Z,30
2022-12-03T14:06:52.694Z,31
2022-12-03T14:08:00.949Z,31
2022-12-03T14:09:08.935Z,31
2022-12-03T14:10:11.723Z,30
2022-12-03T14:11:15.688Z,29
2022-12-03T14:12:19.616Z,29
2022-12-03T14:13:23.032Z,29
2022-12-03T14:14:25.548Z,28
2022-12-03T14:15:28.128Z,28
2022-12-03T14:16:30.880Z,29
2022-12-03T14:17:33.810Z,30
2022-12-03T14:18:36.606Z,30
2022-12-03T14:19:39.213Z,30
2022-12-03T14:20:41.860Z,30
2022-12-03T14:21:46.052Z,28
2022-12-03T14:22:48.536Z,28
2022-12-03T14:23:51.290Z,30
2022-12-03T14:24:53.912Z,29
2022-12-03T14:26:01.016Z,30
2022-12-03T14:27:08.870Z,34
2022-12-03T14:28:11.126Z,34
2022-12-03T14:29:18.223Z,33
2022-12-03T14:30:26.097Z,31
2022-12-03T14:31:29.880Z,31
2022-12-03T14:32:37.280Z,30
2022-12-03T14:33:39.562Z,30
2022-12-03T14:34:42.159Z,30
2022-12-03T14:35:45.315Z,30
2022-12-03T14:36:53.350Z,30
2022-12-03T14:37:56.815Z,30
2022-12-03T14:39:00.967Z,29
2022-12-03T14:40:08.954Z,29
2022-12-03T14:41:12.888Z,30
2022-12-03T14:42:15.836Z,28
2022-12-03T14:43:20.383Z,30
2022-12-03T14:44:22.853Z,30
2022-12-03T14:45:30.162Z,31
2022-12-03T14:46:32.696Z,30
2022-12-03T14:47:35.516Z,30
2022-12-03T14:48:38.107Z,30
2022-12-03T14:49:42.235Z,30
2022-12-03T14:50:44.706Z,30
2022-12-03T14:51:47.257Z,30
2022-12-03T14:52:49.842Z,30
2022-12-03T14:53:52.403Z,30
2022-12-03T14:54:55.031Z,30
2022-12-03T14:55:57.650Z,32
2022-12-03T14:57:00.222Z,31
2022-12-03T14:58:02.850Z,31
2022-12-03T14:59:10.984Z,31
2022-12-03T15:00:13.275Z,31
2022-12-03T15:01:15.975Z,30
2022-12-03T15:02:18.839Z,30
2022-12-03T15:03:21.725Z,30
2022-12-03T15:04:24.410Z,30
2022-12-03T15:05:28.929Z,30
2022-12-03T15:06:31.742Z,30
2022-12-03T15:07:34.422Z,30
2022-12-03T15:08:37.311Z,30
2022-12-03T15:09:39.932Z,30
2022-12-03T15:10:42.555Z,30
2022-12-03T15:11:46.475Z,30
2022-12-03T15:12:49.306Z,31
2022-12-03T15:13:52.165Z,30
2022-12-03T15:14:54.816Z,30
2022-12-03T15:15:57.414Z,31
2022-12-03T15:17:00.188Z,31
2022-12-03T15:18:03.065Z,31
2022-12-03T15:19:05.706Z,30
2022-12-03T15:20:08.376Z,30
2022-12-03T15:21:10.982Z,30
2022-12-03T15:22:13.599Z,30
2022-12-03T15:23:16.207Z,30
2022-12-03T15:24:18.859Z,30
2022-12-03T15:25:21.533Z,30
2022-12-03T15:26:24.200Z,30
2022-12-03T15:27:26.819Z,31
2022-12-03T15:28:29.447Z,30
2022-12-03T15:29:32.094Z,31
2022-12-03T15:30:34.699Z,30